Time;durP1;ratioP1;P1;durP2;ratioP2;P2;SDS_P1;SDS_P2;PMS_P1;PMS_P2;Temp;Humidity;BMP_temperature;BMP_pressure;BME280_temperature;BME280_humidity;BME280_pressure;Samples;Min_cycle;Max_cycle;Signal;HPM_P1;HPM_P2
2021/05/24 00:00:30;;;;;;;0.77;0.73;;;12.60;69.20;;;15.89;55.58;101191.25;4989663;28;96976;-66
2021/05/24 00:02:59;;;;;;;0.65;0.60;;;12.60;69.20;;;15.81;56.50;101189.41;4989105;28;97766;-67
2021/05/24 00:05:34;;;;;;;0.57;0.57;;;12.60;69.20;;;15.78;56.65;101181.13;4988776;28;97780;-66
2021/05/24 00:08:06;;;;;;;2.90;1.20;;;12.60;69.20;;;15.83;56.23;101175.56;4994296;28;96818;-66
2021/05/24 00:10:44;;;;;;;2.92;1.10;;;12.60;69.20;;;15.86;55.93;101177.59;4969190;28;96917;-66
2021/05/24 00:13:16;;;;;;;0.20;0.20;;;12.60;69.20;;;15.84;55.50;101169.03;4989479;28;98061;-67
2021/05/24 00:15:50;;;;;;;0.40;0.40;;;12.60;69.20;;;15.87;55.87;101163.78;4986422;28;96972;-67
2021/05/24 00:18:18;;;;;;;0.20;0.20;;;12.60;69.20;;;15.88;56.33;101167.25;5006072;28;97017;-66
2021/05/24 00:20:53;;;;;;;0.30;0.30;;;12.60;69.20;;;15.91;55.86;101164.69;4988977;28;97894;-67
2021/05/24 00:23:23;;;;;;;0.10;0.10;;;12.60;69.20;;;16.01;56.15;101155.44;4973216;28;96994;-66
2021/05/24 00:25:52;;;;;;;0.82;0.80;;;12.60;69.20;;;16.02;55.52;101148.91;4989953;28;97091;-66
2021/05/24 00:28:21;;;;;;;0.10;0.10;;;12.60;69.10;;;16.00;55.29;101145.75;4990694;28;97502;-66
2021/05/24 00:30:51;;;;;;;0.25;0.25;;;12.60;69.20;;;16.02;55.64;101138.88;5015805;28;97905;-66
2021/05/24 00:33:19;;;;;;;0.43;0.43;;;12.60;69.10;;;15.92;56.06;101136.56;5002346;28;96857;-66
2021/05/24 00:35:48;;;;;;;0.20;0.20;;;12.60;69.20;;;15.86;55.53;101131.66;4987983;28;96909;-67
2021/05/24 00:38:36;;;;;;;1.08;1.00;;;12.60;69.10;;;15.83;56.65;101127.72;4987474;28;96972;-66
2021/05/24 00:41:05;;;;;;;0.68;0.68;;;12.60;69.20;;;15.83;55.74;101125.00;4988658;28;96836;-66
2021/05/24 00:43:36;;;;;;;0.28;0.28;;;12.50;69.10;;;15.79;55.57;101115.19;4987310;28;98085;-66
2021/05/24 00:46:04;;;;;;;0.00;0.00;;;12.50;69.10;;;15.77;55.71;101117.41;5011253;28;96906;-66
2021/05/24 00:48:32;;;;;;;0.68;0.65;;;12.50;69.10;;;15.72;56.53;101118.38;4988279;28;96776;-66
2021/05/24 00:51:03;;;;;;;0.00;0.00;;;12.50;69.10;;;15.69;56.25;101112.84;4988848;28;96853;-66
2021/05/24 00:53:31;;;;;;;13.05;1.65;;;12.50;69.10;;;15.63;56.46;101097.97;4988778;28;96925;-66
2021/05/24 00:56:00;;;;;;;0.20;0.20;;;12.50;69.10;;;15.63;57.00;101099.84;4990180;28;97477;-67
2021/05/24 00:58:30;;;;;;;0.00;0.00;;;12.50;69.10;;;15.63;56.22;101094.44;4985976;28;97184;-66
2021/05/24 01:01:00;;;;;;;16.27;0.45;;;12.50;69.10;;;15.68;55.80;101090.44;4991392;28;98257;-66
2021/05/24 01:03:30;;;;;;;1.48;0.52;;;12.50;69.20;;;15.71;55.97;101091.72;4987891;28;97918;-66
2021/05/24 01:05:59;;;;;;;7.47;0.77;;;12.50;69.10;;;15.72;56.55;101082.47;4985638;28;97209;-66
2021/05/24 01:08:27;;;;;;;0.10;0.10;;;12.50;69.00;;;15.72;56.71;101079.78;4989354;28;96904;-66
2021/05/24 01:10:55;;;;;;;0.10;0.10;;;12.50;69.10;;;15.82;56.59;101076.69;4984970;28;97136;-67
2021/05/24 01:13:24;;;;;;;0.52;0.38;;;12.60;69.10;;;15.87;56.40;101065.69;4985916;28;98906;-66
2021/05/24 01:15:53;;;;;;;0.28;0.28;;;12.60;69.00;;;15.94;56.14;101065.97;4986749;28;96744;-66
2021/05/24 01:18:23;;;;;;;0.00;0.00;;;12.60;69.00;;;15.94;55.31;101057.88;4985864;28;97220;-66
2021/05/24 01:20:51;;;;;;;0.00;0.00;;;12.60;68.90;;;15.92;55.66;101063.59;4986895;28;97769;-66
2021/05/24 01:23:26;;;;;;;0.10;0.10;;;12.60;68.90;;;15.97;55.75;101059.91;4987100;28;96810;-66
2021/05/24 01:25:55;;;;;;;2.72;0.10;;;12.70;68.90;;;15.99;55.79;101052.25;4985051;28;97336;-67
2021/05/24 01:28:23;;;;;;;0.10;0.10;;;12.70;68.90;;;16.06;56.21;101044.41;4988808;28;96719;-67
2021/05/24 01:30:56;;;;;;;0.10;0.10;;;12.70;68.90;;;16.00;55.36;101040.31;4971890;28;96857;-66
2021/05/24 01:33:25;;;;;;;0.17;0.17;;;12.70;68.80;;;16.07;55.99;101044.09;4993997;28;97859;-67
2021/05/24 01:35:54;;;;;;;24.63;1.73;;;12.70;68.80;;;16.02;56.22;101029.97;4992126;28;97044;-66
2021/05/24 01:38:23;;;;;;;0.00;0.00;;;12.70;68.80;;;15.97;55.46;101046.41;4993786;28;96755;-66
2021/05/24 01:40:51;;;;;;;0.00;0.00;;;12.70;68.80;;;16.04;55.33;101041.25;4992225;28;96902;-66
2021/05/24 01:43:20;;;;;;;0.10;0.10;;;12.70;68.80;;;16.01;56.20;101039.22;4990484;28;97884;-66
2021/05/24 01:45:48;;;;;;;0.05;0.05;;;12.70;68.80;;;16.01;56.18;101028.41;4991127;28;96792;-66
2021/05/24 01:48:17;;;;;;;0.00;0.00;;;12.70;68.80;;;16.00;55.74;101038.41;5008046;28;96912;-68
2021/05/24 01:50:46;;;;;;;0.00;0.00;;;12.70;68.80;;;16.06;56.33;101030.91;4991724;28;96876;-67
2021/05/24 01:53:14;;;;;;;0.20;0.20;;;12.80;68.90;;;16.05;55.81;101023.91;4990415;28;97959;-68
2021/05/24 01:55:44;;;;;;;2.50;0.43;;;12.70;68.70;;;16.10;55.76;101027.22;4990842;28;96799;-66
2021/05/24 01:58:13;;;;;;;0.00;0.00;;;12.80;68.80;;;16.11;55.90;101022.56;4989737;28;97321;-66
2021/05/24 02:00:42;;;;;;;0.22;0.22;;;12.80;68.80;;;16.09;55.50;101009.41;4989768;28;98886;-66
2021/05/24 02:03:12;;;;;;;0.00;0.00;;;12.80;68.80;;;16.13;55.65;101009.53;4991446;28;96942;-66
2021/05/24 02:05:40;;;;;;;0.35;0.28;;;12.70;68.70;;;16.08;55.18;101018.63;4990094;28;96723;-66
2021/05/24 02:08:09;;;;;;;0.10;0.10;;;12.70;68.80;;;16.06;55.26;101009.28;4993647;28;96993;-66
2021/05/24 02:10:40;;;;;;;0.00;0.00;;;12.80;68.80;;;15.99;55.66;101007.09;4993226;28;96927;-66
2021/05/24 02:13:09;;;;;;;0.00;0.00;;;12.80;68.80;;;15.99;55.51;101009.78;4991544;28;100033;-67
2021/05/24 02:15:40;;;;;;;0.05;0.05;;;12.80;68.80;;;16.01;56.41;101012.19;4986605;28;97250;-67
2021/05/24 02:18:09;;;;;;;0.77;0.47;;;12.70;68.80;;;16.01;55.51;101006.78;4990069;28;97069;-67
2021/05/24 02:20:38;;;;;;;0.00;0.00;;;12.80;68.80;;;16.11;55.12;101000.94;4989048;28;96970;-67
2021/05/24 02:23:09;;;;;;;0.00;0.00;;;12.80;68.80;;;16.10;56.17;101000.19;4992001;27;97674;-66
2021/05/24 02:25:39;;;;;;;0.43;0.43;;;12.70;68.80;;;16.10;56.08;100994.78;4990486;28;97391;-66
2021/05/24 02:28:08;;;;;;;0.10;0.10;;;12.70;68.80;;;16.06;56.31;100987.66;4990427;28;97555;-66
2021/05/24 02:30:36;;;;;;;0.20;0.20;;;12.80;68.90;;;16.05;56.20;100996.88;4989976;28;97968;-66
2021/05/24 02:33:05;;;;;;;0.43;0.40;;;12.70;68.80;;;16.01;56.33;100988.63;4991690;28;96726;-66
2021/05/24 02:35:34;;;;;;;0.00;0.00;;;12.70;68.90;;;16.00;55.81;100986.28;4988938;28;97178;-66
2021/05/24 02:38:05;;;;;;;0.00;0.00;;;12.80;68.90;;;15.97;56.35;100985.00;4990501;28;97087;-67
2021/05/24 02:40:34;;;;;;;0.00;0.00;;;12.70;68.90;;;16.02;56.30;100986.72;4989155;28;96993;-66
2021/05/24 02:43:05;;;;;;;0.08;0.08;;;12.70;68.90;;;15.91;55.99;100980.13;4988380;28;96937;-66
2021/05/24 02:45:34;;;;;;;0.80;0.80;;;12.70;68.80;;;15.94;56.05;100976.78;4992960;28;97235;-66
2021/05/24 02:48:04;;;;;;;0.10;0.10;;;12.70;68.90;;;15.94;56.65;100969.47;4989951;28;97171;-67
2021/05/24 02:50:33;;;;;;;0.00;0.00;;;12.70;68.90;;;15.94;56.50;100976.78;4991377;28;97826;-66
2021/05/24 02:53:03;;;;;;;0.10;0.10;;;12.70;68.90;;;15.87;56.12;100971.09;4988507;28;97792;-66
2021/05/24 02:55:32;;;;;;;0.00;0.00;;;12.70;68.90;;;15.92;56.12;100968.22;4989289;28;96867;-67
2021/05/24 02:58:02;;;;;;;0.10;0.10;;;12.70;68.90;;;15.93;56.52;100967.09;4986916;28;97788;-66
2021/05/24 03:00:30;;;;;;;0.10;0.10;;;12.80;68.90;;;15.94;56.42;100957.88;4990792;28;99375;-67
2021/05/24 03:03:00;;;;;;;0.00;0.00;;;12.70;68.90;;;15.99;55.64;100950.31;4990128;28;96971;-66
2021/05/24 03:05:30;;;;;;;0.65;0.65;;;12.70;68.90;;;15.97;56.14;100952.56;4986635;28;97400;-66
2021/05/24 03:08:00;;;;;;;0.00;0.00;;;12.80;69.00;;;15.94;56.43;100957.88;4991045;28;97083;-66
2021/05/24 03:10:29;;;;;;;0.00;0.00;;;12.70;68.90;;;15.91;56.00;100948.50;4999808;28;100574;-66
2021/05/24 03:12:58;;;;;;;0.10;0.10;;;12.70;68.90;;;15.95;56.41;100948.63;4990967;28;101084;-66
2021/05/24 03:15:26;;;;;;;0.00;0.00;;;12.80;68.90;;;15.94;55.56;100933.56;4986188;28;98180;-67
2021/05/24 03:17:55;;;;;;;0.10;0.10;;;12.70;68.90;;;15.87;56.58;100938.69;4976368;28;96852;-67
2021/05/24 03:20:24;;;;;;;0.15;0.15;;;12.80;69.00;;;15.85;56.07;100933.63;4992202;28;98882;-66
2021/05/24 03:22:56;;;;;;;0.20;0.20;;;12.70;68.90;;;15.84;56.10;100936.63;4988961;28;97357;-66
2021/05/24 03:25:24;;;;;;;2.47;1.05;;;12.70;69.00;;;15.86;56.02;100934.41;4986165;28;96962;-67
2021/05/24 03:27:52;;;;;;;0.10;0.10;;;12.70;69.00;;;15.83;56.62;100935.06;4987490;28;96973;-66
2021/05/24 03:30:21;;;;;;;0.00;0.00;;;12.70;69.00;;;15.84;56.30;100928.53;4993137;28;97740;-66
2021/05/24 03:32:49;;;;;;;0.00;0.00;;;12.70;69.80;;;15.82;56.15;100928.06;4991429;28;96826;-66
2021/05/24 03:35:18;;;;;;;0.00;0.00;;;12.70;69.10;;;15.86;56.74;100931.69;4986495;28;96735;-67
2021/05/24 03:37:47;;;;;;;0.90;0.50;;;12.70;69.10;;;15.88;56.75;100940.25;4972575;28;96848;-66
2021/05/24 03:40:18;;;;;;;0.10;0.10;;;12.70;69.10;;;15.94;55.66;100928.91;4983095;28;96926;-67
2021/05/24 03:42:46;;;;;;;20.27;0.45;;;12.70;69.10;;;15.95;55.91;100927.03;4991282;28;98032;-66
2021/05/24 03:45:21;;;;;;;0.00;0.00;;;12.70;69.10;;;15.91;55.77;100934.19;4989680;28;96922;-66
2021/05/24 03:47:54;;;;;;;0.10;0.10;;;12.70;69.10;;;15.91;55.85;100932.28;4990841;28;96905;-66
2021/05/24 03:50:24;;;;;;;0.00;0.00;;;12.70;69.10;;;15.91;55.81;100929.59;4986219;28;98025;-67
2021/05/24 03:52:54;;;;;;;0.75;0.60;;;12.70;69.10;;;15.92;56.11;100923.06;5017180;28;97771;-67
2021/05/24 03:55:22;;;;;;;0.00;0.00;;;12.70;69.10;;;15.86;56.74;100929.00;4987635;28;96800;-67
2021/05/24 03:57:53;;;;;;;0.13;0.13;;;12.70;69.10;;;15.86;56.89;100927.09;4991240;28;97049;-66
2021/05/24 04:00:22;;;;;;;0.10;0.10;;;12.70;69.20;;;15.89;55.85;100922.91;4988116;28;97952;-66
2021/05/24 04:02:51;;;;;;;0.00;0.00;;;12.70;69.20;;;15.90;56.45;100929.91;4989702;28;98733;-67
2021/05/24 04:05:24;;;;;;;0.43;0.43;;;12.70;69.20;;;15.90;55.94;100924.50;4988481;28;98191;-67
2021/05/24 04:07:55;;;;;;;0.00;0.00;;;12.80;69.20;;;15.91;56.20;100928.78;4991707;28;97506;-66
2021/05/24 04:10:27;;;;;;;0.00;0.00;;;12.70;69.20;;;15.93;56.18;100926.56;4988065;28;97383;-67
2021/05/24 04:12:56;;;;;;;0.00;0.00;;;12.80;69.20;;;15.95;56.03;100924.31;4987981;28;97209;-67
2021/05/24 04:15:24;;;;;;;1.35;0.90;;;12.80;69.20;;;16.00;56.69;100924.88;4987775;28;97324;-67
2021/05/24 04:17:57;;;;;;;0.00;0.00;;;12.80;69.20;;;16.07;55.87;100925.16;5003753;28;97069;-66
2021/05/24 04:20:26;;;;;;;0.45;0.45;;;12.80;69.20;;;16.12;56.52;100921.44;4989900;28;97150;-66
2021/05/24 04:22:55;;;;;;;0.10;0.10;;;12.90;69.20;;;16.21;55.47;100922.13;5017114;28;97243;-67
2021/05/24 04:25:23;;;;;;;0.00;0.00;;;12.90;69.20;;;16.31;55.76;100914.38;4988100;28;97035;-67
2021/05/24 04:27:52;;;;;;;0.00;0.00;;;12.90;69.20;;;16.38;55.34;100911.97;4986553;28;96903;-66
2021/05/24 04:30:21;;;;;;;0.00;0.00;;;13.00;69.20;;;16.47;56.16;100915.34;4987746;28;97885;-66
2021/05/24 04:32:49;;;;;;;0.20;0.20;;;13.00;69.30;;;16.58;55.53;100913.78;4991553;28;98103;-66
2021/05/24 04:35:18;;;;;;;0.17;0.17;;;13.10;69.20;;;16.61;55.41;100915.81;4991184;28;97155;-66
2021/05/24 04:37:46;;;;;;;0.32;0.32;;;13.20;69.30;;;16.66;55.81;100904.00;4991513;28;96722;-67
2021/05/24 04:40:16;;;;;;;0.00;0.00;;;13.20;69.10;;;16.67;55.07;100908.28;4985416;28;97513;-66
2021/05/24 04:42:45;;;;;;;0.17;0.15;;;13.30;69.10;;;16.74;55.31;100909.28;4989966;28;97685;-66
2021/05/24 04:45:16;;;;;;;1.33;0.77;;;13.30;69.10;;;16.75;55.19;100908.16;4989090;28;96783;-66
2021/05/24 04:47:44;;;;;;;0.00;0.00;;;13.40;69.00;;;16.78;55.10;100907.50;4989982;28;96867;-67
2021/05/24 04:50:13;;;;;;;0.00;0.00;;;13.40;69.00;;;16.81;55.65;100914.94;4985035;28;96918;-67
2021/05/24 04:52:42;;;;;;;0.00;0.00;;;13.50;69.10;;;16.84;55.02;100908.84;4994365;28;97900;-66
2021/05/24 04:55:13;;;;;;;0.00;0.00;;;13.50;69.00;;;16.82;56.16;100907.63;5001888;28;96853;-67
2021/05/24 04:57:42;;;;;;;0.15;0.10;;;13.50;69.00;;;16.81;55.61;100900.59;4989677;28;97274;-69
2021/05/24 05:00:13;;;;;;;0.10;0.10;;;13.60;69.00;;;16.86;55.87;100903.88;4984076;28;98119;-66
2021/05/24 05:02:43;;;;;;;0.00;0.00;;;13.60;69.00;;;16.91;55.79;100897.47;4989172;28;96807;-67
2021/05/24 05:05:13;;;;;;;0.25;0.20;;;13.60;69.00;;;16.98;55.50;100893.06;4989447;28;96924;-67
2021/05/24 05:07:41;;;;;;;0.10;0.10;;;13.70;68.90;;;16.94;55.82;100904.91;4975729;28;96937;-67
2021/05/24 05:10:11;;;;;;;0.00;0.00;;;13.70;68.90;;;16.93;56.19;100890.56;4990395;28;98243;-67
2021/05/24 05:12:39;;;;;;;0.10;0.10;;;13.70;69.10;;;16.97;55.68;100902.31;5008119;28;98108;-67
2021/05/24 05:15:10;;;;;;;0.10;0.10;;;13.80;68.90;;;17.00;55.51;100898.91;4985801;28;98115;-66
2021/05/24 05:17:38;;;;;;;0.00;0.00;;;13.80;68.90;;;16.98;56.46;100897.66;5022120;28;96960;-67
2021/05/24 05:20:08;;;;;;;0.00;0.00;;;13.80;68.90;;;17.02;55.86;100902.06;4991781;28;98977;-66
2021/05/24 05:22:37;;;;;;;0.00;0.00;;;13.80;68.90;;;17.06;55.67;100902.16;4988252;28;96799;-67
2021/05/24 05:25:07;;;;;;;0.00;0.00;;;13.80;68.90;;;17.18;55.30;100905.66;4996900;28;96831;-66
2021/05/24 05:27:35;;;;;;;0.00;0.00;;;13.80;68.90;;;17.18;55.32;100907.59;4991362;28;96742;-67
2021/05/24 05:30:09;;;;;;;0.10;0.10;;;13.80;68.90;;;17.12;55.50;100895.41;4991504;28;98428;-67
2021/05/24 05:32:38;;;;;;;0.80;0.45;;;13.80;68.90;;;17.17;55.75;100895.94;4989121;28;98401;-66
2021/05/24 05:35:09;;;;;;;0.00;0.00;;;13.80;68.90;;;17.17;56.21;100887.06;4991503;28;96749;-66
2021/05/24 05:37:37;;;;;;;0.10;0.10;;;13.80;68.90;;;17.19;55.38;100892.91;4992268;28;96939;-67
2021/05/24 05:40:15;;;;;;;0.00;0.00;;;13.90;69.00;;;17.24;55.38;100892.66;4991868;28;97829;-67
2021/05/24 05:42:43;;;;;;;0.25;0.25;;;13.90;69.00;;;17.25;55.44;100891.53;4988833;28;98731;-67
2021/05/24 05:45:14;;;;;;;0.00;0.00;;;13.90;69.00;;;17.22;55.86;100905.75;4991358;28;96850;-66
2021/05/24 05:47:42;;;;;;;0.52;0.50;;;13.90;69.50;;;17.24;55.45;100904.28;4992160;28;97688;-66
2021/05/24 05:50:12;;;;;;;0.00;0.00;;;14.00;69.00;;;17.26;55.72;100896.59;4990594;28;98982;-66
2021/05/24 05:52:40;;;;;;;0.00;0.00;;;14.00;68.90;;;17.30;55.29;100894.81;4989420;28;99411;-67
2021/05/24 05:55:10;;;;;;;0.00;0.00;;;14.10;68.90;;;17.40;55.54;100900.53;4987864;28;96672;-66
2021/05/24 05:57:38;;;;;;;0.00;0.00;;;14.10;68.90;;;17.42;55.76;100883.97;4994170;28;96779;-67
2021/05/24 06:00:08;;;;;;;0.00;0.00;;;14.10;68.90;;;17.54;55.34;100898.25;4990816;28;97909;-66
2021/05/24 06:02:41;;;;;;;0.90;0.30;;;14.20;68.90;;;17.64;55.50;100884.22;4990907;28;98024;-67
2021/05/24 06:05:13;;;;;;;0.00;0.00;;;14.20;68.90;;;17.76;54.98;100888.81;4987315;28;97129;-66
2021/05/24 06:07:42;;;;;;;11.10;0.30;;;14.30;68.90;;;17.86;55.40;100880.16;4991303;28;97025;-66
2021/05/24 06:10:14;;;;;;;0.20;0.20;;;14.40;69.00;;;17.93;55.76;100875.72;4993860;28;98145;-67
2021/05/24 06:12:46;;;;;;;0.00;0.00;;;14.50;68.90;;;18.03;55.32;100877.97;4989008;28;96902;-67
2021/05/24 06:15:18;;;;;;;1.40;0.90;;;14.60;68.90;;;18.15;55.27;100871.66;4988073;28;97391;-67
2021/05/24 06:17:47;;;;;;;0.00;0.00;;;14.70;68.80;;;18.19;54.99;100867.91;4987732;28;96756;-67
2021/05/24 06:20:16;;;;;;;0.10;0.10;;;14.80;68.70;;;18.37;55.05;100871.09;4992937;28;96822;-66
2021/05/24 06:22:45;;;;;;;0.05;0.05;;;14.90;68.70;;;18.47;55.01;100867.88;4991240;28;97994;-66
2021/05/24 06:25:14;;;;;;;0.00;0.00;;;15.00;68.80;;;18.79;54.92;100858.56;4992227;28;97042;-67
2021/05/24 06:27:43;;;;;;;0.57;0.57;;;15.10;69.10;;;19.11;54.32;100864.34;4991053;28;96994;-67
2021/05/24 06:30:12;;;;;;;0.00;0.00;;;15.30;69.10;;;19.27;54.62;100856.97;4988987;28;96803;-67
2021/05/24 06:32:41;;;;;;;3.28;1.02;;;15.50;68.90;;;19.41;54.40;100870.06;4989268;28;97207;-68
2021/05/24 06:35:11;;;;;;;0.68;0.52;;;15.70;69.00;;;19.78;53.83;100855.69;4988426;28;96869;-67
2021/05/24 06:37:39;;;;;;;0.08;0.08;;;15.90;69.10;;;20.11;54.05;100850.50;4990302;28;96829;-66
2021/05/24 06:40:09;;;;;;;0.00;0.00;;;16.10;69.00;;;20.42;54.19;100849.47;4990410;28;97096;-67
2021/05/24 06:42:37;;;;;;;0.00;0.00;;;16.30;69.20;;;20.63;54.11;100859.53;4991420;28;98127;-67
2021/05/24 06:45:09;;;;;;;0.00;0.00;;;16.60;69.20;;;20.86;54.22;100845.91;4990982;28;96910;-67
2021/05/24 06:47:38;;;;;;;0.00;0.00;;;16.80;69.20;;;21.11;53.53;100853.28;4992522;28;97004;-67
2021/05/24 06:50:09;;;;;;;0.20;0.10;;;17.00;69.10;;;21.19;54.32;100851.44;4986754;27;97106;-67
2021/05/24 06:52:37;;;;;;;0.00;0.00;;;17.20;69.10;;;21.25;54.14;100848.00;5025418;28;98014;-67
2021/05/24 06:55:08;;;;;;;0.08;0.08;;;17.30;68.90;;;21.07;54.79;100836.09;4988788;28;96908;-67
2021/05/24 06:57:36;;;;;;;1.45;0.32;;;17.40;68.70;;;20.99;55.16;100836.38;4993194;28;96802;-67
2021/05/24 07:00:11;;;;;;;0.00;0.00;;;17.40;68.60;;;20.82;54.78;100832.25;4975107;28;96938;-67
2021/05/24 07:02:41;;;;;;;0.25;0.25;;;17.40;68.60;;;20.83;55.14;100843.91;5006155;28;98393;-67
2021/05/24 07:05:12;;;;;;;0.00;0.00;;;17.30;68.50;;;20.80;56.02;100848.13;4992270;28;97634;-67
2021/05/24 07:07:41;;;;;;;0.10;0.10;;;17.30;68.50;;;20.84;55.18;100846.28;4988969;28;97212;-67
2021/05/24 07:10:12;;;;;;;3.00;0.38;;;17.30;68.60;;;21.02;54.75;100838.34;4990056;28;97943;-67
2021/05/24 07:12:41;;;;;;;0.00;0.00;;;17.40;68.80;;;21.16;55.37;100839.31;4989784;28;97684;-67
2021/05/24 07:15:10;;;;;;;2.35;0.80;;;17.50;68.90;;;21.25;55.46;100831.66;4990566;28;96867;-67
2021/05/24 07:17:39;;;;;;;0.00;0.00;;;17.60;68.80;;;21.26;55.23;100837.91;4992054;28;96904;-67
2021/05/24 07:20:08;;;;;;;0.15;0.15;;;17.60;68.60;;;21.17;55.23;100840.13;4991482;28;98209;-66
2021/05/24 07:22:38;;;;;;;0.00;0.00;;;17.60;68.50;;;21.09;55.15;100839.25;4972481;28;97688;-67
2021/05/24 07:25:08;;;;;;;10.45;0.30;;;17.60;68.40;;;21.00;55.20;100835.97;4989350;28;97696;-67
2021/05/24 07:27:36;;;;;;;0.10;0.10;;;17.60;68.20;;;20.81;55.10;100829.84;4973099;28;97115;-67
2021/05/24 07:30:07;;;;;;;5.22;0.85;;;17.50;68.10;;;20.74;55.11;100838.72;4990006;28;97004;-67
2021/05/24 07:32:36;;;;;;;0.25;0.25;;;17.40;68.10;;;20.73;55.28;100825.44;4989532;28;98137;-67
2021/05/24 07:35:07;;;;;;;0.00;0.00;;;17.40;68.20;;;20.78;55.12;100838.75;4992169;28;97196;-67
2021/05/24 07:37:36;;;;;;;0.00;0.00;;;17.30;68.20;;;20.77;55.24;100842.63;4986882;28;96966;-67
2021/05/24 07:40:16;;;;;;;0.00;0.00;;;17.30;68.30;;;20.79;54.96;100845.75;4988164;28;97955;-67
2021/05/24 07:42:45;;;;;;;1.52;0.22;;;17.30;68.30;;;20.81;54.82;100838.00;4990367;28;98812;-67
2021/05/24 07:45:14;;;;;;;0.00;0.00;;;17.30;68.40;;;20.84;54.97;100826.41;4989293;28;96865;-67
2021/05/24 07:47:43;;;;;;;0.10;0.10;;;17.30;68.30;;;20.83;55.15;100836.53;4990435;28;97047;-67
2021/05/24 07:50:11;;;;;;;0.00;0.00;;;17.40;68.40;;;20.85;55.68;100828.78;4989053;28;97052;-67
2021/05/24 07:52:40;;;;;;;0.22;0.22;;;17.40;68.30;;;20.90;54.85;100830.41;4972954;28;97496;-67
2021/05/24 07:55:11;;;;;;;0.00;0.00;;;17.40;68.30;;;20.95;55.49;100838.25;4991939;28;96938;-67
2021/05/24 07:57:39;;;;;;;0.00;0.00;;;17.40;68.20;;;21.00;55.15;100833.25;4991053;28;96957;-67
2021/05/24 08:00:11;;;;;;;18.83;0.65;;;17.40;68.10;;;20.95;55.20;100828.13;5000202;28;97205;-67
2021/05/24 08:02:41;;;;;;;0.00;0.00;;;17.50;68.20;;;20.90;54.48;100828.47;4989235;28;97678;-68
2021/05/24 08:05:14;;;;;;;0.05;0.05;;;17.40;68.00;;;20.97;55.13;100825.81;4972887;28;97110;-67
2021/05/24 08:07:44;;;;;;;0.00;0.00;;;17.40;68.10;;;21.08;55.11;100820.53;4989842;28;97335;-67
2021/05/24 08:10:16;;;;;;;0.00;0.00;;;17.50;68.20;;;21.08;55.42;100818.59;4988910;28;96749;-67
2021/05/24 08:12:46;;;;;;;0.00;0.00;;;17.50;68.20;;;21.09;54.75;100830.25;4984402;28;97086;-67
2021/05/24 08:15:28;;;;;;;0.25;0.25;;;17.60;68.10;;;21.08;54.25;100826.78;5009518;28;96969;-67
2021/05/24 08:18:00;;;;;;;0.10;0.00;;;17.60;68.00;;;21.05;54.95;100822.06;4990525;28;97139;-67
2021/05/24 08:20:32;;;;;;;0.00;0.00;;;17.60;67.90;;;21.02;54.39;100827.44;4989178;28;96967;-67
2021/05/24 08:23:03;;;;;;;6.28;0.60;;;17.50;67.90;;;21.05;55.15;100822.06;4985486;28;99740;-67
2021/05/24 08:25:31;;;;;;;0.00;0.00;;;17.50;67.90;;;20.98;54.59;100823.91;4989233;28;96867;-67
2021/05/24 08:27:59;;;;;;;1.55;0.63;;;17.50;67.90;;;20.97;54.59;100814.16;4992119;28;96981;-67
2021/05/24 08:30:31;;;;;;;0.05;0.05;;;17.50;68.00;;;20.97;54.35;100814.16;4985389;28;96962;-67
2021/05/24 08:33:00;;;;;;;1.15;0.15;;;17.50;67.90;;;20.91;55.09;100808.22;4983917;28;97691;-67
2021/05/24 08:35:32;;;;;;;0.00;0.00;;;17.50;67.80;;;20.77;55.71;100816.19;4990466;28;96875;-67
2021/05/24 08:38:04;;;;;;;0.00;0.00;;;17.50;67.80;;;20.81;54.67;100808.84;4985890;28;97446;-67
2021/05/24 08:40:32;;;;;;;0.00;0.00;;;17.40;67.80;;;20.84;55.35;100807.34;5017145;28;97364;-67
2021/05/24 08:43:04;;;;;;;0.00;0.00;;;17.40;67.90;;;20.93;55.00;100803.19;4987821;28;97017;-67
2021/05/24 08:45:37;;;;;;;0.08;0.08;;;17.40;67.90;;;21.00;54.90;100805.25;4985172;28;97153;-68
2021/05/24 08:48:09;;;;;;;0.00;0.00;;;17.40;67.90;;;21.12;54.26;100802.28;4984910;28;97112;-67
2021/05/24 08:50:40;;;;;;;0.00;0.00;;;17.50;67.90;;;21.22;54.24;100802.41;4987263;28;97265;-66
2021/05/24 08:53:11;;;;;;;0.17;0.17;;;17.50;67.90;;;21.32;54.07;100804.50;4987061;28;97885;-67
2021/05/24 08:55:39;;;;;;;0.10;0.10;;;17.60;67.80;;;21.37;54.45;100789.75;4986527;28;97210;-67
2021/05/24 08:58:09;;;;;;;0.10;0.00;;;17.70;67.70;;;21.44;54.06;100789.81;4986398;28;97301;-67
2021/05/24 09:00:39;;;;;;;2.08;0.60;;;17.70;67.70;;;21.44;53.77;100790.63;4978902;28;98040;-67
2021/05/24 09:03:17;;;;;;;0.95;0.95;;;17.80;67.70;;;21.54;53.62;100791.91;4984705;28;96894;-67
2021/05/24 09:05:47;;;;;;;0.98;0.45;;;17.80;67.40;;;21.45;53.95;100791.38;4972500;28;97320;-68
2021/05/24 09:08:19;;;;;;;0.00;0.00;;;17.90;67.50;;;21.44;54.24;100790.63;4987043;28;97495;-67
2021/05/24 09:10:48;;;;;;;0.30;0.30;;;17.90;67.40;;;21.36;54.19;100788.97;4985787;28;98340;-69
2021/05/24 09:13:19;;;;;;;0.00;0.00;;;17.80;67.20;;;21.19;55.04;100788.75;4983552;28;98135;-67
2021/05/24 09:15:48;;;;;;;0.00;0.00;;;17.80;67.20;;;21.21;54.94;100787.22;4984483;28;96938;-67
2021/05/24 09:18:19;;;;;;;0.10;0.10;;;17.80;67.50;;;21.26;54.85;100792.34;4983701;28;97739;-67
2021/05/24 09:20:50;;;;;;;0.00;0.00;;;17.70;67.50;;;21.28;53.82;100781.84;4982811;28;97297;-67
2021/05/24 09:23:24;;;;;;;75.18;2.08;;;17.70;67.50;;;21.22;54.12;100782.56;4984613;28;98098;-67
2021/05/24 09:26:05;;;;;;;0.22;0.22;;;17.80;67.40;;;21.25;54.10;100787.28;4986203;28;97444;-67
2021/05/24 09:28:41;;;;;;;0.10;0.10;;;17.70;67.50;;;21.32;53.83;100782.69;4987192;28;97005;-67
2021/05/24 09:31:15;;;;;;;0.10;0.10;;;17.80;67.40;;;21.28;54.19;100798.19;4982795;28;97471;-67
2021/05/24 09:33:47;;;;;;;0.98;0.43;;;17.80;67.30;;;21.19;54.26;100781.34;4984601;28;97565;-67
2021/05/24 09:36:16;;;;;;;0.00;0.00;;;17.80;67.10;;;21.09;54.22;100776.56;4985107;28;97220;-67
2021/05/24 09:38:48;;;;;;;0.03;0.03;;;17.70;67.00;;;20.92;54.99;100776.34;4985658;28;97095;-67
2021/05/24 09:41:20;;;;;;;0.00;0.00;;;17.70;67.10;;;20.90;54.48;100779.41;4985989;28;99385;-65
2021/05/24 09:43:52;;;;;;;0.00;0.00;;;17.60;67.30;;;20.85;54.79;100776.22;4984466;28;97214;-65
2021/05/24 09:46:23;;;;;;;0.00;0.00;;;17.50;67.20;;;20.77;54.86;100783.50;4985094;28;97056;-65
2021/05/24 09:49:01;;;;;;;0.10;0.10;;;17.50;67.10;;;20.55;54.36;100780.06;4985417;28;97484;-66
2021/05/24 09:51:37;;;;;;;4.55;1.67;;;17.40;67.00;;;20.32;55.32;100792.91;4982685;28;98301;-66
2021/05/24 09:54:11;;;;;;;0.50;0.50;;;17.30;67.10;;;20.16;55.20;100795.00;4987103;28;96890;-66
2021/05/24 09:56:44;;;;;;;0.10;0.10;;;17.10;67.30;;;20.08;55.69;100804.97;4989435;28;96894;-66
2021/05/24 09:59:16;;;;;;;0.00;0.00;;;17.00;67.60;;;20.04;55.95;100804.13;4990395;28;98511;-66
2021/05/24 10:01:50;;;;;;;0.05;0.05;;;16.90;67.90;;;20.00;55.10;100807.88;4988606;28;97947;-66
2021/05/24 10:04:22;;;;;;;0.10;0.10;;;16.80;68.10;;;19.95;54.95;100806.25;4988072;28;97891;-66
2021/05/24 10:06:52;;;;;;;0.10;0.10;;;16.80;68.10;;;19.92;55.44;100808.91;5003205;28;97163;-66
2021/05/24 10:09:21;;;;;;;0.00;0.00;;;16.70;68.10;;;19.92;55.86;100803.47;4989170;28;96863;-66
2021/05/24 10:11:53;;;;;;;0.00;0.00;;;16.70;68.20;;;19.85;55.48;100812.28;4988585;28;98251;-66
2021/05/24 10:14:24;;;;;;;0.03;0.03;;;16.60;68.00;;;19.76;55.10;100803.59;4968080;28;96946;-66
2021/05/24 10:16:56;;;;;;;3.17;0.28;;;16.60;68.10;;;19.73;55.51;100811.66;4987585;28;97786;-66
2021/05/24 10:19:26;;;;;;;0.10;0.10;;;16.50;68.30;;;19.72;55.74;100796.50;4987854;28;99026;-65
2021/05/24 10:21:55;;;;;;;0.10;0.10;;;16.50;68.30;;;19.58;55.97;100812.56;4988335;28;97961;-65
2021/05/24 10:24:25;;;;;;;0.00;0.00;;;16.40;68.40;;;19.60;55.87;100794.72;5018329;28;97423;-65